Driscoll, North Dakota
Current Conditions -  °F | °C
As of 3:52 PM on Friday 24 Oct 2014 (Local Time) from KBIS Reporting Station
Clear Clear  
Wind Chill: 68°   Ceiling: Unl
Heat Index: 68°   Visibility: 10mi
Dew Point: 35°   Wind: 20mph
Humidity: 30%   Direction: 290°WNW
Pressure: 29.91"   Gusts: 29mph
Location:  46.84°N, 100.14°W
Report Text: KBIS 242052Z 29017G25KT 10SM CLR 20/02 A2991 RMK AO2 PK WND 29026/2041 SLP131 T02000017 55000
Loading
Personal Weather Stations






























Interactive Weather Map
Tropical Storm Tracking
New forecast layout! Learn more

10-Day Weather Forecast

Advertisements
Track Severe Weather on mobile